createdAt,value
2018-09-05T00:01:47.050Z,99.90
2018-09-05T00:04:17.454Z,99.90
2018-09-05T00:06:46.396Z,99.90
2018-09-05T00:09:15.365Z,99.90
2018-09-05T00:11:44.807Z,99.90
2018-09-05T00:14:13.789Z,99.90
2018-09-05T00:16:42.912Z,99.90
2018-09-05T00:19:11.956Z,99.90
2018-09-05T00:21:41.032Z,99.90
2018-09-05T00:24:09.995Z,99.90
2018-09-05T00:26:38.963Z,99.90
2018-09-05T00:29:07.920Z,99.90
2018-09-05T00:31:36.888Z,99.90
2018-09-05T00:34:05.947Z,99.90
2018-09-05T00:36:34.913Z,99.90
2018-09-05T00:39:05.627Z,99.90
2018-09-05T00:41:34.585Z,99.90
2018-09-05T00:44:03.589Z,99.90
2018-09-05T00:46:32.711Z,99.90
2018-09-05T00:49:02.240Z,99.90
2018-09-05T00:51:31.339Z,99.90
2018-09-05T00:54:00.752Z,99.90
2018-09-05T00:56:29.978Z,99.90
2018-09-05T00:58:58.914Z,99.90
2018-09-05T01:01:28.428Z,99.90
2018-09-05T01:03:57.619Z,99.90
2018-09-05T01:06:26.600Z,99.90
2018-09-05T01:09:00.073Z,99.90
2018-09-05T01:11:29.435Z,99.90
2018-09-05T01:13:58.455Z,99.90
2018-09-05T01:16:27.559Z,99.90
2018-09-05T01:18:56.503Z,99.90
2018-09-05T01:21:25.417Z,99.90
2018-09-05T01:23:54.407Z,99.90
2018-09-05T01:26:23.627Z,99.90
2018-09-05T01:28:52.594Z,99.90
2018-09-05T01:31:21.564Z,99.90
2018-09-05T01:33:50.605Z,99.90
2018-09-05T01:36:19.748Z,99.90
2018-09-05T01:38:48.690Z,99.90
2018-09-05T01:41:17.672Z,99.90
2018-09-05T01:43:46.747Z,99.90
2018-09-05T01:46:15.737Z,99.90
2018-09-05T01:48:44.809Z,99.90
2018-09-05T01:51:13.788Z,99.90
2018-09-05T01:53:42.822Z,99.90
2018-09-05T01:56:11.796Z,99.90
2018-09-05T01:58:40.784Z,99.90
2018-09-05T02:01:09.723Z,99.90
2018-09-05T02:03:38.771Z,99.90
2018-09-05T02:06:07.862Z,99.90
2018-09-05T02:08:36.944Z,99.90
2018-09-05T02:11:05.878Z,99.90
2018-09-05T02:13:34.887Z,99.90
2018-09-05T02:16:03.857Z,99.90
2018-09-05T02:18:32.998Z,99.90
2018-09-05T02:21:01.997Z,99.90
2018-09-05T02:23:30.998Z,99.90
2018-09-05T02:25:59.929Z,99.90
2018-09-05T02:28:28.882Z,99.90
2018-09-05T02:30:57.853Z,99.90
2018-09-05T02:33:26.974Z,99.90
2018-09-05T02:35:55.980Z,99.90
2018-09-05T02:38:24.939Z,99.90
2018-09-05T02:40:53.992Z,99.90
2018-09-05T02:43:28.270Z,99.90
2018-09-05T02:45:57.266Z,99.90
2018-09-05T02:48:26.391Z,99.90
2018-09-05T02:50:55.334Z,99.90
2018-09-05T02:53:24.911Z,99.90
2018-09-05T02:55:59.287Z,99.90
2018-09-05T02:58:28.296Z,99.90
2018-09-05T03:00:57.586Z,99.90
2018-09-05T03:03:27.091Z,99.90
2018-09-05T03:05:56.419Z,99.90
2018-09-05T03:08:25.460Z,99.90
2018-09-05T03:10:54.452Z,99.90
2018-09-05T03:13:23.423Z,99.90
2018-09-05T03:15:52.447Z,99.90
2018-09-05T03:18:21.417Z,99.90
2018-09-05T03:20:50.459Z,99.90
2018-09-05T03:23:20.413Z,99.90
2018-09-05T03:25:49.454Z,99.90
2018-09-05T03:28:18.413Z,99.90
2018-09-05T03:30:47.771Z,99.90
2018-09-05T03:33:16.738Z,99.90
2018-09-05T03:35:45.716Z,99.90
2018-09-05T03:38:14.668Z,99.90
2018-09-05T03:40:43.624Z,99.90
2018-09-05T03:43:12.586Z,99.90
2018-09-05T03:45:41.533Z,99.90
2018-09-05T03:48:10.561Z,99.90
2018-09-05T03:50:39.498Z,99.90
2018-09-05T03:53:08.432Z,99.90
2018-09-05T03:55:38.584Z,99.90
2018-09-05T03:58:07.814Z,99.90
2018-09-05T04:00:37.712Z,99.90
2018-09-05T04:03:06.660Z,99.90
2018-09-05T04:05:35.628Z,99.90
2018-09-05T04:08:04.623Z,99.90
2018-09-05T04:10:33.570Z,99.90
2018-09-05T04:13:03.443Z,99.90
2018-09-05T04:15:32.581Z,99.90
2018-09-05T04:18:01.556Z,99.90
2018-09-05T04:20:31.482Z,99.90
2018-09-05T04:23:00.467Z,99.90
2018-09-05T04:25:29.431Z,99.90
2018-09-05T04:27:59.057Z,99.90
2018-09-05T04:30:28.010Z,99.90
2018-09-05T04:32:56.984Z,99.90
2018-09-05T04:35:25.971Z,99.90
2018-09-05T04:37:55.115Z,99.90
2018-09-05T04:40:24.051Z,99.90
2018-09-05T04:42:53.025Z,99.90
2018-09-05T04:45:22.007Z,99.90
2018-09-05T04:47:50.993Z,99.90
2018-09-05T04:50:20.013Z,99.90
2018-09-05T04:52:49.051Z,99.90
2018-09-05T04:55:18.033Z,99.90
2018-09-05T04:57:47.022Z,99.90
2018-09-05T05:00:15.946Z,99.90
2018-09-05T05:02:44.983Z,99.90
2018-09-05T05:05:14.588Z,99.90
2018-09-05T05:07:43.594Z,99.90
2018-09-05T05:10:12.668Z,99.90
2018-09-05T05:12:41.802Z,99.90
2018-09-05T05:15:10.798Z,99.90
2018-09-05T05:17:39.787Z,99.90
2018-09-05T05:20:08.781Z,99.90
2018-09-05T05:22:37.749Z,99.90
2018-09-05T05:25:06.890Z,99.90
2018-09-05T05:27:35.947Z,99.90
2018-09-05T05:30:05.888Z,99.90
2018-09-05T05:32:34.903Z,99.90
2018-09-05T05:35:04.080Z,99.90
2018-09-05T05:37:33.209Z,99.90
2018-09-05T05:40:06.729Z,99.90
2018-09-05T05:42:36.895Z,99.90
2018-09-05T05:45:09.228Z,99.90
2018-09-05T05:47:38.194Z,99.90
2018-09-05T05:50:07.312Z,99.90
2018-09-05T05:52:36.300Z,99.90
2018-09-05T05:55:05.974Z,99.90
2018-09-05T05:57:34.964Z,99.90
2018-09-05T06:00:04.015Z,99.90
2018-09-05T06:02:33.283Z,99.90
2018-09-05T06:05:02.233Z,99.90
2018-09-05T06:07:31.213Z,99.90
2018-09-05T06:10:00.186Z,99.90
2018-09-05T06:12:29.712Z,99.90
2018-09-05T06:14:58.710Z,99.90
2018-09-05T06:17:27.819Z,99.90
2018-09-05T06:19:57.103Z,99.90
2018-09-05T06:22:26.048Z,99.90
2018-09-05T06:24:55.022Z,99.90
2018-09-05T06:27:24.068Z,99.90
2018-09-05T06:29:53.019Z,99.90
2018-09-05T06:32:22.016Z,99.90
2018-09-05T06:34:50.983Z,99.90
2018-09-05T06:37:20.912Z,99.90
2018-09-05T06:39:49.884Z,99.90
2018-09-05T06:42:18.861Z,99.90
2018-09-05T06:44:48.835Z,99.90
2018-09-05T06:47:17.877Z,99.90
2018-09-05T06:49:47.028Z,99.90
2018-09-05T06:52:16.028Z,99.90
2018-09-05T06:54:44.988Z,99.90
2018-09-05T06:57:14.322Z,99.90
2018-09-05T06:59:43.311Z,99.90
2018-09-05T07:02:12.312Z,99.90
2018-09-05T07:04:41.329Z,99.90
2018-09-05T07:07:10.484Z,99.90
2018-09-05T07:09:39.512Z,99.90
2018-09-05T07:12:08.477Z,99.90
2018-09-05T07:14:37.683Z,99.90
2018-09-05T07:17:07.033Z,99.90
2018-09-05T07:19:36.005Z,99.90
2018-09-05T07:22:05.383Z,99.90
2018-09-05T07:24:34.302Z,99.90
2018-09-05T07:27:03.346Z,99.90
2018-09-05T07:29:32.285Z,99.90
2018-09-05T07:32:01.251Z,99.90
2018-09-05T07:34:30.211Z,99.90
2018-09-05T07:36:59.222Z,99.90
2018-09-05T07:39:28.232Z,99.90
2018-09-05T07:41:57.207Z,99.90
2018-09-05T07:44:26.249Z,99.90
2018-09-05T07:46:55.263Z,99.90
2018-09-05T07:49:24.376Z,99.90
2018-09-05T07:51:53.366Z,99.90
2018-09-05T07:54:22.410Z,99.90
2018-09-05T07:56:51.384Z,99.90
2018-09-05T07:59:20.423Z,99.90
2018-09-05T08:01:49.432Z,99.90
2018-09-05T08:04:18.584Z,99.90
2018-09-05T08:06:48.697Z,99.90
2018-09-05T08:09:17.688Z,99.90
2018-09-05T08:11:46.722Z,99.90
2018-09-05T08:14:15.645Z,99.90
2018-09-05T08:16:44.826Z,99.90
2018-09-05T08:19:13.933Z,99.90
2018-09-05T08:21:42.973Z,99.90
2018-09-05T08:24:12.044Z,99.90
2018-09-05T08:26:40.978Z,99.90
2018-09-05T08:29:10.033Z,99.90
2018-09-05T08:31:39.201Z,99.90
2018-09-05T08:34:08.627Z,99.90
2018-09-05T08:36:38.203Z,99.90
2018-09-05T08:39:10.525Z,99.90
2018-09-05T08:41:39.549Z,99.90
2018-09-05T08:44:08.652Z,99.90
2018-09-05T08:46:37.650Z,99.90
2018-09-05T08:49:06.706Z,99.90
2018-09-05T08:51:35.729Z,99.90
2018-09-05T08:54:04.734Z,99.90
2018-09-05T08:56:33.921Z,99.90
2018-09-05T08:59:02.910Z,99.90
2018-09-05T09:01:32.115Z,99.90
2018-09-05T09:04:01.306Z,99.90
2018-09-05T09:06:30.526Z,99.90
2018-09-05T09:08:59.500Z,99.90
2018-09-05T09:11:28.616Z,99.90
2018-09-05T09:16:34.671Z,99.90
2018-09-05T09:19:03.682Z,99.90
2018-09-05T09:21:33.671Z,99.90
2018-09-05T09:24:02.936Z,99.90
2018-09-05T09:26:32.698Z,99.90
2018-09-05T09:29:01.674Z,99.90
2018-09-05T09:31:30.723Z,99.90
2018-09-05T09:34:00.011Z,99.90
2018-09-05T09:36:29.099Z,99.90
2018-09-05T09:38:58.080Z,99.90
2018-09-05T09:44:18.059Z,99.90
2018-09-05T09:46:47.048Z,99.90
2018-09-05T09:49:16.141Z,99.90
2018-09-05T09:51:45.296Z,99.90
2018-09-05T09:54:14.285Z,99.90
2018-09-05T09:56:43.297Z,99.90
2018-09-05T09:59:12.332Z,99.90
2018-09-05T10:01:46.728Z,99.90
2018-09-05T10:04:20.992Z,99.90
2018-09-05T10:06:50.118Z,99.90
2018-09-05T10:09:24.322Z,99.90
2018-09-05T10:11:59.453Z,99.90
2018-09-05T10:14:33.111Z,99.90
2018-09-05T10:17:07.591Z,99.90
2018-09-05T10:19:36.450Z,99.90
2018-09-05T10:22:05.431Z,99.90
2018-09-05T10:24:34.458Z,99.90
2018-09-05T10:27:03.651Z,99.90
2018-09-05T10:29:32.783Z,99.90
2018-09-05T10:32:01.904Z,99.90
2018-09-05T10:34:30.879Z,99.90
2018-09-05T10:36:59.881Z,99.90
2018-09-05T10:39:28.976Z,99.90
2018-09-05T10:41:57.910Z,99.90
2018-09-05T10:44:27.451Z,99.90
2018-09-05T10:46:56.431Z,99.90
2018-09-05T10:49:32.352Z,99.90
2018-09-05T10:52:07.364Z,99.90
2018-09-05T10:54:36.448Z,99.90
2018-09-05T10:57:05.755Z,99.90
2018-09-05T10:59:34.733Z,99.90
2018-09-05T11:02:03.715Z,99.90
2018-09-05T11:04:32.695Z,99.90
2018-09-05T11:07:01.669Z,99.90
2018-09-05T11:09:30.633Z,99.90
2018-09-05T11:11:59.605Z,99.90
2018-09-05T11:14:28.736Z,99.90
2018-09-05T11:16:57.799Z,99.90
2018-09-05T11:19:26.807Z,99.90
2018-09-05T11:21:55.798Z,99.90
2018-09-05T11:24:24.859Z,99.90
2018-09-05T11:26:54.222Z,99.90
2018-09-05T11:29:25.152Z,99.90
2018-09-05T11:31:54.329Z,99.90
2018-09-05T11:34:24.639Z,99.90
2018-09-05T11:36:53.601Z,99.90
2018-09-05T11:39:23.596Z,99.90
2018-09-05T11:41:52.614Z,99.90
2018-09-05T11:44:21.687Z,99.90
2018-09-05T11:46:50.712Z,99.90
2018-09-05T11:49:20.167Z,99.90
2018-09-05T11:51:49.167Z,99.90
2018-09-05T11:54:18.124Z,99.90
2018-09-05T11:56:47.147Z,99.90
2018-09-05T11:59:16.187Z,99.90
2018-09-05T12:01:45.178Z,99.90
2018-09-05T12:04:14.356Z,99.90
2018-09-05T12:06:43.352Z,99.90
2018-09-05T12:09:13.138Z,99.90
2018-09-05T12:11:42.294Z,99.90
2018-09-05T12:14:11.267Z,99.90
2018-09-05T12:16:40.264Z,99.90
2018-09-05T12:19:09.299Z,99.90
2018-09-05T12:21:39.053Z,99.90
2018-09-05T12:24:08.090Z,99.90
2018-09-05T12:26:37.044Z,99.90
2018-09-05T12:29:08.830Z,99.90
2018-09-05T12:31:37.775Z,99.90
2018-09-05T12:34:06.815Z,99.90
2018-09-05T12:36:35.792Z,99.90
2018-09-05T12:39:07.623Z,98.70
2018-09-05T12:41:36.595Z,98.70
2018-09-05T12:44:05.943Z,99.50
2018-09-05T12:46:34.909Z,99.90
2018-09-05T12:49:03.912Z,99.90
2018-09-05T12:51:33.155Z,99.90
2018-09-05T12:54:02.335Z,99.90
2018-09-05T12:56:31.464Z,99.90
2018-09-05T12:59:00.574Z,99.90
2018-09-05T13:01:29.627Z,99.90
2018-09-05T13:03:58.691Z,99.90
2018-09-05T13:06:28.639Z,99.60
2018-09-05T13:08:58.679Z,99.20
2018-09-05T13:11:27.976Z,99.50
2018-09-05T13:13:57.056Z,98.10
2018-09-05T13:16:26.456Z,98.70
2018-09-05T13:18:56.251Z,99.90
2018-09-05T13:21:25.213Z,99.90
2018-09-05T13:23:54.275Z,99.90
2018-09-05T13:26:23.417Z,99.60
2018-09-05T13:28:52.720Z,98.60
2018-09-05T13:31:21.694Z,98.30
2018-09-05T13:33:50.783Z,99.10
2018-09-05T13:36:19.957Z,99.50
2018-09-05T13:38:49.076Z,99.20
2018-09-05T13:41:18.880Z,99.70
2018-09-05T13:43:47.907Z,98.90
2018-09-05T13:46:17.623Z,97.70
2018-09-05T13:48:46.747Z,97.50
2018-09-05T13:51:16.067Z,97.60
2018-09-05T13:53:45.682Z,97.40
2018-09-05T13:56:14.779Z,97.00
2018-09-05T13:58:43.863Z,96.30
2018-09-05T14:01:12.935Z,95.70
2018-09-05T14:03:42.745Z,96.90
2018-09-05T14:06:13.464Z,95.60
2018-09-05T14:08:43.492Z,94.20
2018-09-05T14:11:12.560Z,92.70
2018-09-05T14:13:41.794Z,93.00
2018-09-05T14:16:11.364Z,93.20
2018-09-05T14:18:40.347Z,92.60
2018-09-05T14:21:09.455Z,91.70
2018-09-05T14:23:38.626Z,90.60
2018-09-05T14:26:07.705Z,90.40
2018-09-05T14:28:36.967Z,90.00
2018-09-05T14:31:05.974Z,89.10
2018-09-05T14:33:35.004Z,90.10
2018-09-05T14:36:04.031Z,90.70
2018-09-05T14:38:33.046Z,89.10
2018-09-05T14:41:02.620Z,88.10
2018-09-05T14:43:32.876Z,88.50
2018-09-05T14:46:02.330Z,89.50
2018-09-05T14:48:32.296Z,90.30
2018-09-05T14:51:01.277Z,91.10
2018-09-05T14:53:30.368Z,92.30
2018-09-05T14:55:59.308Z,92.80
2018-09-05T14:58:29.012Z,93.50
2018-09-05T15:00:57.964Z,94.60
2018-09-05T15:03:27.610Z,94.00
2018-09-05T15:05:56.668Z,93.80
2018-09-05T15:08:26.406Z,94.30
2018-09-05T15:10:55.519Z,95.50
2018-09-05T15:13:24.667Z,96.30
2018-09-05T15:15:53.965Z,96.60
2018-09-05T15:18:23.283Z,96.60
2018-09-05T15:20:52.304Z,96.30
2018-09-05T15:23:21.391Z,97.20
2018-09-05T15:25:50.507Z,97.80
2018-09-05T15:28:19.535Z,98.20
2018-09-05T15:30:48.519Z,98.50
2018-09-05T15:33:17.580Z,97.40
2018-09-05T15:35:46.793Z,96.50
2018-09-05T15:38:15.820Z,97.00
2018-09-05T15:40:44.974Z,97.50
2018-09-05T15:43:13.983Z,98.30
2018-09-05T15:45:42.999Z,98.70
2018-09-05T15:48:12.136Z,98.70
2018-09-05T15:50:41.166Z,99.20
2018-09-05T15:53:10.154Z,99.60
2018-09-05T15:55:39.246Z,99.80
2018-09-05T15:58:08.297Z,99.90
2018-09-05T16:00:38.021Z,99.90
2018-09-05T16:03:07.150Z,99.90
2018-09-05T16:05:36.151Z,99.90
2018-09-05T16:08:06.867Z,99.90
2018-09-05T16:10:36.061Z,99.90
2018-09-05T16:13:05.019Z,99.90
2018-09-05T16:15:34.322Z,99.90
2018-09-05T16:18:03.245Z,99.90
2018-09-05T16:20:34.562Z,99.90
2018-09-05T16:23:04.004Z,99.90
2018-09-05T16:25:36.568Z,99.90
2018-09-05T16:28:05.676Z,99.90
2018-09-05T16:30:34.701Z,99.90
2018-09-05T16:33:03.675Z,99.90
2018-09-05T16:35:32.763Z,99.90
2018-09-05T16:38:01.918Z,99.90
2018-09-05T16:40:30.952Z,99.90
2018-09-05T16:42:59.928Z,99.90
2018-09-05T16:45:29.169Z,99.90
2018-09-05T16:47:58.333Z,99.90
2018-09-05T16:50:27.704Z,99.90
2018-09-05T16:52:56.756Z,99.90
2018-09-05T16:55:25.893Z,99.90
2018-09-05T16:57:55.022Z,99.90
2018-09-05T17:00:24.108Z,99.90
2018-09-05T17:02:53.135Z,99.90
2018-09-05T17:05:22.231Z,99.90
2018-09-05T17:07:51.202Z,99.90
2018-09-05T17:10:20.174Z,99.90
2018-09-05T17:12:49.257Z,99.90
2018-09-05T17:15:18.300Z,99.90
2018-09-05T17:17:47.304Z,99.90
2018-09-05T17:20:16.311Z,99.90
2018-09-05T17:22:45.332Z,99.90
2018-09-05T17:25:14.302Z,99.90
2018-09-05T17:27:44.295Z,99.90
2018-09-05T17:30:13.530Z,99.90
2018-09-05T17:32:43.040Z,99.90
2018-09-05T17:35:12.182Z,99.90
2018-09-05T17:37:41.908Z,99.90
2018-09-05T17:40:11.017Z,99.90
2018-09-05T17:42:39.988Z,99.90
2018-09-05T17:45:09.129Z,99.90
2018-09-05T17:47:38.209Z,99.90
2018-09-05T17:50:07.282Z,99.90
2018-09-05T17:52:36.220Z,99.90
2018-09-05T17:55:05.629Z,99.90
2018-09-05T17:57:34.608Z,99.90
2018-09-05T18:00:03.730Z,99.90
2018-09-05T18:02:32.696Z,99.90
2018-09-05T18:05:01.816Z,99.90
2018-09-05T18:07:30.881Z,99.90
2018-09-05T18:09:59.992Z,99.90
2018-09-05T18:12:29.075Z,99.90
2018-09-05T18:14:58.050Z,99.90
2018-09-05T18:17:28.008Z,99.90
2018-09-05T18:19:56.966Z,99.90
2018-09-05T18:22:26.019Z,99.90
2018-09-05T18:24:55.064Z,99.90
2018-09-05T18:27:24.109Z,99.90
2018-09-05T18:29:53.104Z,99.90
2018-09-05T18:32:22.101Z,99.90
2018-09-05T18:34:51.096Z,99.90
2018-09-05T18:37:20.077Z,99.90
2018-09-05T18:39:49.072Z,99.90
2018-09-05T18:42:18.093Z,99.90
2018-09-05T18:44:47.575Z,99.90
2018-09-05T18:47:16.733Z,99.90
2018-09-05T18:49:45.914Z,99.90
2018-09-05T18:52:15.103Z,99.90
2018-09-05T18:54:44.438Z,99.90
2018-09-05T18:57:13.464Z,99.90
2018-09-05T18:59:42.493Z,99.90
2018-09-05T19:02:12.450Z,99.90
2018-09-05T19:04:42.304Z,99.90
2018-09-05T19:07:12.281Z,99.90
2018-09-05T19:09:42.491Z,99.90
2018-09-05T19:12:12.462Z,99.90
2018-09-05T19:14:41.496Z,99.90
2018-09-05T19:17:10.535Z,99.90
2018-09-05T19:19:39.643Z,99.90
2018-09-05T19:22:08.888Z,99.90
2018-09-05T19:24:37.918Z,99.90
2018-09-05T19:27:07.032Z,99.90
2018-09-05T19:29:36.081Z,99.90
2018-09-05T19:32:05.215Z,99.90
2018-09-05T19:34:34.320Z,99.90
2018-09-05T19:37:03.443Z,99.90
2018-09-05T19:39:32.449Z,99.90
2018-09-05T19:42:01.546Z,99.90
2018-09-05T19:44:30.710Z,99.90
2018-09-05T19:47:00.695Z,99.90
2018-09-05T19:49:29.785Z,99.90
2018-09-05T19:51:58.884Z,99.90
2018-09-05T19:54:27.884Z,99.90
2018-09-05T19:56:57.500Z,99.90
2018-09-05T19:59:27.532Z,99.90
2018-09-05T20:01:57.260Z,99.90
2018-09-05T20:04:26.547Z,99.90
2018-09-05T20:06:55.649Z,99.90
2018-09-05T20:09:24.663Z,99.90
2018-09-05T20:11:53.697Z,99.90
2018-09-05T20:14:22.707Z,99.90
2018-09-05T20:16:52.025Z,99.90
2018-09-05T20:19:22.862Z,99.90
2018-09-05T20:21:53.239Z,99.90
2018-09-05T20:24:22.203Z,99.90
2018-09-05T20:26:51.476Z,99.90
2018-09-05T20:29:20.487Z,99.90
2018-09-05T20:31:49.818Z,99.90
2018-09-05T20:34:19.182Z,99.90
2018-09-05T20:36:48.189Z,99.90
2018-09-05T20:39:17.433Z,99.90
2018-09-05T20:41:46.401Z,99.90
2018-09-05T20:44:15.372Z,99.90
2018-09-05T20:46:44.362Z,99.90
2018-09-05T20:49:13.360Z,99.90
2018-09-05T20:51:43.272Z,99.90
2018-09-05T20:54:12.405Z,99.90
2018-09-05T20:56:42.274Z,99.90
2018-09-05T20:59:11.336Z,99.90
2018-09-05T21:01:40.317Z,99.90
2018-09-05T21:04:09.365Z,99.90
2018-09-05T21:06:38.401Z,99.90
2018-09-05T21:09:08.205Z,99.90
2018-09-05T21:11:37.231Z,99.90
2018-09-05T21:14:06.641Z,99.90
2018-09-05T21:16:39.597Z,99.90
2018-09-05T21:19:08.633Z,99.90
2018-09-05T21:21:37.691Z,99.90
2018-09-05T21:24:07.251Z,99.90
2018-09-05T21:26:36.294Z,99.90
2018-09-05T21:29:05.308Z,99.90
2018-09-05T21:31:34.400Z,99.90
2018-09-05T21:34:03.394Z,99.90
2018-09-05T21:36:32.423Z,99.90
2018-09-05T21:39:01.431Z,99.90
2018-09-05T21:41:30.436Z,99.90
2018-09-05T21:43:59.450Z,99.90
2018-09-05T21:46:29.017Z,99.90
2018-09-05T21:48:58.034Z,99.90
2018-09-05T21:51:28.339Z,99.90
2018-09-05T21:53:58.273Z,99.90
2018-09-05T21:56:27.260Z,99.90
2018-09-05T21:58:56.417Z,99.90
2018-09-05T22:01:25.424Z,99.90
2018-09-05T22:03:54.963Z,99.90
2018-09-05T22:06:24.057Z,99.90
2018-09-05T22:08:53.005Z,99.90
2018-09-05T22:11:23.991Z,99.90
2018-09-05T22:13:54.084Z,99.90
2018-09-05T22:16:23.008Z,99.90
2018-09-05T22:18:52.191Z,99.90
2018-09-05T22:21:21.178Z,99.90
2018-09-05T22:23:50.420Z,99.90
2018-09-05T22:26:19.475Z,99.90
2018-09-05T22:28:48.510Z,99.90
2018-09-05T22:31:18.042Z,99.90
2018-09-05T22:33:47.027Z,99.90
2018-09-05T22:36:15.980Z,99.90
2018-09-05T22:38:44.970Z,99.90
2018-09-05T22:41:13.931Z,99.90
2018-09-05T22:43:54.396Z,99.90
2018-09-05T22:46:34.705Z,99.90
2018-09-05T22:51:26.033Z,99.90
2018-09-05T22:55:10.881Z,99.90
2018-09-05T22:58:00.192Z,99.90
2018-09-05T23:00:46.435Z,99.90
2018-09-05T23:03:26.873Z,99.90
2018-09-05T23:07:06.090Z,99.90
2018-09-05T23:09:46.471Z,99.90
2018-09-05T23:12:26.711Z,99.90
2018-09-05T23:15:07.148Z,99.90
2018-09-05T23:19:54.123Z,99.90
2018-09-05T23:22:23.687Z,99.90
2018-09-05T23:24:52.630Z,99.90
2018-09-05T23:27:21.612Z,99.90
2018-09-05T23:29:50.604Z,99.90
2018-09-05T23:32:19.606Z,99.90
2018-09-05T23:34:48.694Z,99.90
2018-09-05T23:37:17.678Z,99.90
2018-09-05T23:39:46.612Z,99.90
2018-09-05T23:42:15.673Z,99.90
2018-09-05T23:44:44.735Z,99.90
2018-09-05T23:47:13.773Z,99.90
2018-09-05T23:49:42.828Z,99.90
2018-09-05T23:52:11.825Z,99.90
2018-09-05T23:54:40.872Z,99.90
2018-09-05T23:57:09.882Z,99.90
